Confederate, Kentucky
Current Conditions -  °F | °C
As of 2:55 PM on Sunday 21 Dec 2014 (Local Time) from K5M9 Reporting Station
Clear Clear  
Wind Chill: 44°   Ceiling: Unl
Heat Index: 46°   Visibility: 10mi
Dew Point: 31°   Wind: 5mph
Humidity: 55%   Direction: 130°SE
Pressure: 30.08"   Gusts: NA
Location:  37.0504°N, 88.0159°W
Report Text: K5M9 212055Z AUTO 13004KT 10SM CLR 08/00 A3008 RMK AO2 T00801005
Loading
Personal Weather Stations






























Interactive Weather Map New forecast layout! Learn more

10-Day Weather Forecast

Advertisements
Track Severe Weather on mobile